sensor_id;sensor_type;location;lat;lon;timestamp;P1;durP1;ratioP1;P2;durP2;ratioP2
19347;SDS011;9810;52.480;9.806;2023-03-14T00:00:06;2.90;;;1.40;;
19347;SDS011;9810;52.480;9.806;2023-03-14T00:02:36;3.77;;;1.10;;
19347;SDS011;9810;52.480;9.806;2023-03-14T00:05:04;1.53;;;1.07;;
19347;SDS011;9810;52.480;9.806;2023-03-14T00:07:33;5.50;;;1.50;;
19347;SDS011;9810;52.480;9.806;2023-03-14T00:10:02;4.30;;;1.33;;
19347;SDS011;9810;52.480;9.806;2023-03-14T00:12:31;3.67;;;1.20;;
19347;SDS011;9810;52.480;9.806;2023-03-14T00:14:58;6.57;;;1.20;;
19347;SDS011;9810;52.480;9.806;2023-03-14T00:17:28;5.20;;;1.30;;
19347;SDS011;9810;52.480;9.806;2023-03-14T00:19:58;3.73;;;1.07;;
19347;SDS011;9810;52.480;9.806;2023-03-14T00:22:33;6.10;;;1.40;;
19347;SDS011;9810;52.480;9.806;2023-03-14T00:25:00;5.47;;;2.43;;
19347;SDS011;9810;52.480;9.806;2023-03-14T00:27:28;7.23;;;1.47;;
19347;SDS011;9810;52.480;9.806;2023-03-14T00:29:56;2.60;;;1.20;;
19347;SDS011;9810;52.480;9.806;2023-03-14T00:32:23;6.23;;;1.30;;
19347;SDS011;9810;52.480;9.806;2023-03-14T00:34:50;3.43;;;1.37;;
19347;SDS011;9810;52.480;9.806;2023-03-14T00:37:19;5.53;;;1.63;;
19347;SDS011;9810;52.480;9.806;2023-03-14T00:39:47;5.47;;;1.40;;
19347;SDS011;9810;52.480;9.806;2023-03-14T00:42:14;3.30;;;1.20;;
19347;SDS011;9810;52.480;9.806;2023-03-14T00:44:42;8.43;;;1.30;;
19347;SDS011;9810;52.480;9.806;2023-03-14T00:47:09;3.00;;;0.83;;
19347;SDS011;9810;52.480;9.806;2023-03-14T00:49:36;4.70;;;1.50;;
19347;SDS011;9810;52.480;9.806;2023-03-14T00:52:04;3.13;;;0.70;;
19347;SDS011;9810;52.480;9.806;2023-03-14T00:54:33;3.07;;;0.80;;
19347;SDS011;9810;52.480;9.806;2023-03-14T00:57:00;3.73;;;1.40;;
19347;SDS011;9810;52.480;9.806;2023-03-14T00:59:28;2.77;;;1.07;;
19347;SDS011;9810;52.480;9.806;2023-03-14T01:01:55;2.70;;;1.03;;
19347;SDS011;9810;52.480;9.806;2023-03-14T01:04:22;4.17;;;1.30;;
19347;SDS011;9810;52.480;9.806;2023-03-14T01:06:50;2.73;;;1.73;;
19347;SDS011;9810;52.480;9.806;2023-03-14T01:09:17;3.33;;;1.30;;
19347;SDS011;9810;52.480;9.806;2023-03-14T01:11:46;2.87;;;1.30;;
19347;SDS011;9810;52.480;9.806;2023-03-14T01:14:14;2.13;;;1.10;;
19347;SDS011;9810;52.480;9.806;2023-03-14T01:16:41;1.67;;;0.90;;
19347;SDS011;9810;52.480;9.806;2023-03-14T01:19:09;3.60;;;1.20;;
19347;SDS011;9810;52.480;9.806;2023-03-14T01:21:36;3.07;;;1.30;;
19347;SDS011;9810;52.480;9.806;2023-03-14T01:24:04;3.50;;;1.07;;
19347;SDS011;9810;52.480;9.806;2023-03-14T01:26:33;4.30;;;1.13;;
19347;SDS011;9810;52.480;9.806;2023-03-14T01:29:03;2.17;;;1.07;;
19347;SDS011;9810;52.480;9.806;2023-03-14T01:31:31;2.60;;;0.97;;
19347;SDS011;9810;52.480;9.806;2023-03-14T01:33:58;5.13;;;1.00;;
19347;SDS011;9810;52.480;9.806;2023-03-14T01:36:26;4.07;;;0.90;;
19347;SDS011;9810;52.480;9.806;2023-03-14T01:38:53;3.50;;;1.53;;
19347;SDS011;9810;52.480;9.806;2023-03-14T01:41:22;2.60;;;0.70;;
19347;SDS011;9810;52.480;9.806;2023-03-14T01:43:51;1.40;;;0.80;;
19347;SDS011;9810;52.480;9.806;2023-03-14T01:46:22;1.50;;;0.90;;
19347;SDS011;9810;52.480;9.806;2023-03-14T01:48:54;1.77;;;1.10;;
19347;SDS011;9810;52.480;9.806;2023-03-14T01:51:29;4.30;;;0.93;;
19347;SDS011;9810;52.480;9.806;2023-03-14T01:54:06;3.27;;;0.90;;
19347;SDS011;9810;52.480;9.806;2023-03-14T01:56:36;3.20;;;0.93;;
19347;SDS011;9810;52.480;9.806;2023-03-14T01:59:07;2.57;;;1.20;;
19347;SDS011;9810;52.480;9.806;2023-03-14T02:01:38;3.47;;;0.90;;
19347;SDS011;9810;52.480;9.806;2023-03-14T02:04:10;3.47;;;1.27;;
19347;SDS011;9810;52.480;9.806;2023-03-14T02:06:41;1.63;;;0.93;;
19347;SDS011;9810;52.480;9.806;2023-03-14T02:09:14;4.10;;;1.30;;
19347;SDS011;9810;52.480;9.806;2023-03-14T02:11:42;2.80;;;1.07;;
19347;SDS011;9810;52.480;9.806;2023-03-14T02:14:16;2.57;;;0.93;;
19347;SDS011;9810;52.480;9.806;2023-03-14T02:16:53;1.73;;;1.00;;
19347;SDS011;9810;52.480;9.806;2023-03-14T02:19:21;2.20;;;1.30;;
19347;SDS011;9810;52.480;9.806;2023-03-14T02:22:02;5.70;;;0.90;;
19347;SDS011;9810;52.480;9.806;2023-03-14T02:24:37;9.17;;;1.73;;
19347;SDS011;9810;52.480;9.806;2023-03-14T02:27:11;5.37;;;1.27;;
19347;SDS011;9810;52.480;9.806;2023-03-14T02:29:43;3.57;;;1.00;;
19347;SDS011;9810;52.480;9.806;2023-03-14T02:32:16;4.03;;;0.97;;
19347;SDS011;9810;52.480;9.806;2023-03-14T02:34:45;2.07;;;1.20;;
19347;SDS011;9810;52.480;9.806;2023-03-14T02:37:19;4.33;;;1.13;;
19347;SDS011;9810;52.480;9.806;2023-03-14T02:39:49;1.70;;;0.97;;
19347;SDS011;9810;52.480;9.806;2023-03-14T02:42:19;1.37;;;1.00;;
19347;SDS011;9810;52.480;9.806;2023-03-14T02:44:49;4.10;;;0.80;;
19347;SDS011;9810;52.480;9.806;2023-03-14T02:47:26;2.00;;;0.90;;
19347;SDS011;9810;52.480;9.806;2023-03-14T02:50:00;2.47;;;0.90;;
19347;SDS011;9810;52.480;9.806;2023-03-14T02:52:30;4.17;;;1.03;;
19347;SDS011;9810;52.480;9.806;2023-03-14T02:54:57;3.23;;;0.70;;
19347;SDS011;9810;52.480;9.806;2023-03-14T02:57:26;1.27;;;0.80;;
19347;SDS011;9810;52.480;9.806;2023-03-14T02:59:53;3.13;;;0.80;;
19347;SDS011;9810;52.480;9.806;2023-03-14T03:02:32;4.30;;;1.03;;
19347;SDS011;9810;52.480;9.806;2023-03-14T03:05:02;3.03;;;0.70;;
19347;SDS011;9810;52.480;9.806;2023-03-14T03:07:29;2.73;;;0.73;;
19347;SDS011;9810;52.480;9.806;2023-03-14T03:09:57;2.60;;;0.90;;
19347;SDS011;9810;52.480;9.806;2023-03-14T03:12:26;1.53;;;1.00;;
19347;SDS011;9810;52.480;9.806;2023-03-14T03:14:53;1.47;;;0.93;;
19347;SDS011;9810;52.480;9.806;2023-03-14T03:17:20;2.63;;;1.30;;
19347;SDS011;9810;52.480;9.806;2023-03-14T03:19:48;1.37;;;0.70;;
19347;SDS011;9810;52.480;9.806;2023-03-14T03:22:15;3.97;;;0.80;;
19347;SDS011;9810;52.480;9.806;2023-03-14T03:24:42;4.40;;;1.10;;
19347;SDS011;9810;52.480;9.806;2023-03-14T03:27:10;2.30;;;0.73;;
19347;SDS011;9810;52.480;9.806;2023-03-14T03:29:39;1.60;;;0.80;;
19347;SDS011;9810;52.480;9.806;2023-03-14T03:32:07;1.07;;;0.77;;
19347;SDS011;9810;52.480;9.806;2023-03-14T03:34:34;2.57;;;0.60;;
19347;SDS011;9810;52.480;9.806;2023-03-14T03:37:01;3.60;;;0.83;;
19347;SDS011;9810;52.480;9.806;2023-03-14T03:39:29;3.27;;;0.87;;
19347;SDS011;9810;52.480;9.806;2023-03-14T03:41:56;3.50;;;0.70;;
19347;SDS011;9810;52.480;9.806;2023-03-14T03:44:26;4.13;;;1.70;;
19347;SDS011;9810;52.480;9.806;2023-03-14T03:46:55;5.30;;;0.67;;
19347;SDS011;9810;52.480;9.806;2023-03-14T03:49:23;1.87;;;0.80;;
19347;SDS011;9810;52.480;9.806;2023-03-14T03:51:50;1.83;;;1.10;;
19347;SDS011;9810;52.480;9.806;2023-03-14T03:54:19;3.23;;;1.03;;
19347;SDS011;9810;52.480;9.806;2023-03-14T03:56:53;2.67;;;1.00;;
19347;SDS011;9810;52.480;9.806;2023-03-14T03:59:21;3.40;;;0.57;;
19347;SDS011;9810;52.480;9.806;2023-03-14T04:01:51;0.63;;;0.30;;
19347;SDS011;9810;52.480;9.806;2023-03-14T04:04:30;0.37;;;0.37;;
19347;SDS011;9810;52.480;9.806;2023-03-14T04:06:59;1.73;;;0.40;;
19347;SDS011;9810;52.480;9.806;2023-03-14T04:09:27;1.17;;;0.67;;
19347;SDS011;9810;52.480;9.806;2023-03-14T04:11:56;0.93;;;0.40;;
19347;SDS011;9810;52.480;9.806;2023-03-14T04:14:24;0.53;;;0.40;;
19347;SDS011;9810;52.480;9.806;2023-03-14T04:16:51;1.07;;;0.53;;
19347;SDS011;9810;52.480;9.806;2023-03-14T04:19:20;2.47;;;0.37;;
19347;SDS011;9810;52.480;9.806;2023-03-14T04:21:47;0.83;;;0.53;;
19347;SDS011;9810;52.480;9.806;2023-03-14T04:24:15;0.93;;;0.57;;
19347;SDS011;9810;52.480;9.806;2023-03-14T04:26:45;4.87;;;0.40;;
19347;SDS011;9810;52.480;9.806;2023-03-14T04:29:12;2.40;;;0.63;;
19347;SDS011;9810;52.480;9.806;2023-03-14T04:31:39;1.47;;;0.40;;
19347;SDS011;9810;52.480;9.806;2023-03-14T04:34:08;2.47;;;0.60;;
19347;SDS011;9810;52.480;9.806;2023-03-14T04:36:37;0.60;;;0.60;;
19347;SDS011;9810;52.480;9.806;2023-03-14T04:39:04;2.83;;;0.90;;
19347;SDS011;9810;52.480;9.806;2023-03-14T04:41:32;1.90;;;0.30;;
19347;SDS011;9810;52.480;9.806;2023-03-14T04:43:59;2.63;;;0.37;;
19347;SDS011;9810;52.480;9.806;2023-03-14T04:46:28;1.80;;;0.40;;
19347;SDS011;9810;52.480;9.806;2023-03-14T04:48:56;0.77;;;0.23;;
19347;SDS011;9810;52.480;9.806;2023-03-14T04:51:23;1.03;;;0.50;;
19347;SDS011;9810;52.480;9.806;2023-03-14T04:53:54;1.30;;;0.30;;
19347;SDS011;9810;52.480;9.806;2023-03-14T04:56:21;1.10;;;0.50;;
19347;SDS011;9810;52.480;9.806;2023-03-14T04:58:49;1.37;;;0.40;;
19347;SDS011;9810;52.480;9.806;2023-03-14T05:01:16;5.37;;;0.50;;
19347;SDS011;9810;52.480;9.806;2023-03-14T05:03:44;0.30;;;0.20;;
19347;SDS011;9810;52.480;9.806;2023-03-14T05:06:11;3.03;;;1.03;;
19347;SDS011;9810;52.480;9.806;2023-03-14T05:08:39;1.03;;;0.57;;
19347;SDS011;9810;52.480;9.806;2023-03-14T05:11:09;0.57;;;0.37;;
19347;SDS011;9810;52.480;9.806;2023-03-14T05:13:37;3.00;;;0.60;;
19347;SDS011;9810;52.480;9.806;2023-03-14T05:16:05;4.33;;;0.30;;
19347;SDS011;9810;52.480;9.806;2023-03-14T05:18:34;3.10;;;0.60;;
19347;SDS011;9810;52.480;9.806;2023-03-14T05:21:01;0.67;;;0.30;;
19347;SDS011;9810;52.480;9.806;2023-03-14T05:23:29;4.47;;;0.33;;
19347;SDS011;9810;52.480;9.806;2023-03-14T05:26:00;0.93;;;0.30;;
19347;SDS011;9810;52.480;9.806;2023-03-14T05:28:31;1.03;;;0.30;;
19347;SDS011;9810;52.480;9.806;2023-03-14T05:30:58;1.80;;;0.43;;
19347;SDS011;9810;52.480;9.806;2023-03-14T05:33:26;6.50;;;0.87;;
19347;SDS011;9810;52.480;9.806;2023-03-14T05:35:53;3.37;;;0.67;;
19347;SDS011;9810;52.480;9.806;2023-03-14T05:38:20;0.87;;;0.30;;
19347;SDS011;9810;52.480;9.806;2023-03-14T05:40:47;0.40;;;0.40;;
19347;SDS011;9810;52.480;9.806;2023-03-14T05:43:16;1.70;;;0.50;;
19347;SDS011;9810;52.480;9.806;2023-03-14T05:45:51;1.27;;;0.60;;
19347;SDS011;9810;52.480;9.806;2023-03-14T05:48:18;2.57;;;0.40;;
19347;SDS011;9810;52.480;9.806;2023-03-14T05:50:46;3.27;;;0.60;;
19347;SDS011;9810;52.480;9.806;2023-03-14T05:53:20;5.83;;;1.13;;
19347;SDS011;9810;52.480;9.806;2023-03-14T05:55:51;2.00;;;1.00;;
19347;SDS011;9810;52.480;9.806;2023-03-14T05:58:19;3.50;;;0.53;;
19347;SDS011;9810;52.480;9.806;2023-03-14T06:00:46;2.50;;;0.90;;
19347;SDS011;9810;52.480;9.806;2023-03-14T06:03:16;5.33;;;1.77;;
19347;SDS011;9810;52.480;9.806;2023-03-14T06:05:49;3.97;;;0.80;;
19347;SDS011;9810;52.480;9.806;2023-03-14T06:08:19;2.63;;;0.87;;
19347;SDS011;9810;52.480;9.806;2023-03-14T06:10:46;6.03;;;0.70;;
19347;SDS011;9810;52.480;9.806;2023-03-14T06:13:14;2.73;;;0.93;;
19347;SDS011;9810;52.480;9.806;2023-03-14T06:15:43;4.23;;;0.90;;
19347;SDS011;9810;52.480;9.806;2023-03-14T06:18:11;2.20;;;1.00;;
19347;SDS011;9810;52.480;9.806;2023-03-14T06:20:41;3.27;;;1.10;;
19347;SDS011;9810;52.480;9.806;2023-03-14T06:23:09;1.70;;;1.37;;
19347;SDS011;9810;52.480;9.806;2023-03-14T06:25:36;6.87;;;1.90;;
19347;SDS011;9810;52.480;9.806;2023-03-14T06:28:04;6.40;;;1.20;;
19347;SDS011;9810;52.480;9.806;2023-03-14T06:30:31;2.07;;;0.80;;
19347;SDS011;9810;52.480;9.806;2023-03-14T06:33:00;4.17;;;0.90;;
19347;SDS011;9810;52.480;9.806;2023-03-14T06:35:27;3.33;;;1.27;;
19347;SDS011;9810;52.480;9.806;2023-03-14T06:37:56;8.70;;;1.27;;
19347;SDS011;9810;52.480;9.806;2023-03-14T06:40:23;5.27;;;1.00;;
19347;SDS011;9810;52.480;9.806;2023-03-14T06:42:51;4.57;;;0.90;;
19347;SDS011;9810;52.480;9.806;2023-03-14T06:45:18;3.10;;;0.93;;
19347;SDS011;9810;52.480;9.806;2023-03-14T06:47:47;2.50;;;1.03;;
19347;SDS011;9810;52.480;9.806;2023-03-14T06:50:15;3.03;;;1.20;;
19347;SDS011;9810;52.480;9.806;2023-03-14T06:52:47;5.10;;;1.00;;
19347;SDS011;9810;52.480;9.806;2023-03-14T06:55:16;6.10;;;0.70;;
19347;SDS011;9810;52.480;9.806;2023-03-14T06:57:43;1.70;;;0.80;;
19347;SDS011;9810;52.480;9.806;2023-03-14T07:00:11;4.87;;;1.13;;
19347;SDS011;9810;52.480;9.806;2023-03-14T07:02:40;2.00;;;0.80;;
19347;SDS011;9810;52.480;9.806;2023-03-14T07:05:08;4.70;;;0.80;;
19347;SDS011;9810;52.480;9.806;2023-03-14T07:07:36;2.73;;;0.53;;
19347;SDS011;9810;52.480;9.806;2023-03-14T07:10:12;4.80;;;0.67;;
19347;SDS011;9810;52.480;9.806;2023-03-14T07:12:41;2.83;;;0.43;;
19347;SDS011;9810;52.480;9.806;2023-03-14T07:15:08;1.90;;;0.47;;
19347;SDS011;9810;52.480;9.806;2023-03-14T07:17:38;1.43;;;0.43;;
19347;SDS011;9810;52.480;9.806;2023-03-14T07:20:06;0.70;;;0.30;;
19347;SDS011;9810;52.480;9.806;2023-03-14T07:22:37;0.27;;;0.27;;
19347;SDS011;9810;52.480;9.806;2023-03-14T07:25:06;2.47;;;0.50;;
19347;SDS011;9810;52.480;9.806;2023-03-14T07:27:37;3.57;;;0.50;;
19347;SDS011;9810;52.480;9.806;2023-03-14T07:30:06;0.97;;;0.30;;
19347;SDS011;9810;52.480;9.806;2023-03-14T07:32:35;2.03;;;0.20;;
19347;SDS011;9810;52.480;9.806;2023-03-14T07:35:02;2.03;;;1.27;;
19347;SDS011;9810;52.480;9.806;2023-03-14T07:37:30;0.30;;;0.30;;
19347;SDS011;9810;52.480;9.806;2023-03-14T07:39:57;0.50;;;0.20;;
19347;SDS011;9810;52.480;9.806;2023-03-14T07:42:30;0.77;;;0.37;;
19347;SDS011;9810;52.480;9.806;2023-03-14T07:44:58;1.70;;;0.30;;
19347;SDS011;9810;52.480;9.806;2023-03-14T07:47:27;0.30;;;0.30;;
19347;SDS011;9810;52.480;9.806;2023-03-14T07:49:55;2.20;;;0.40;;
19347;SDS011;9810;52.480;9.806;2023-03-14T07:52:22;1.70;;;0.43;;
19347;SDS011;9810;52.480;9.806;2023-03-14T07:54:49;1.37;;;0.20;;
19347;SDS011;9810;52.480;9.806;2023-03-14T07:57:17;2.07;;;0.30;;
19347;SDS011;9810;52.480;9.806;2023-03-14T07:59:44;0.60;;;0.27;;
19347;SDS011;9810;52.480;9.806;2023-03-14T08:02:15;1.13;;;0.20;;
19347;SDS011;9810;52.480;9.806;2023-03-14T08:04:47;0.30;;;0.20;;
19347;SDS011;9810;52.480;9.806;2023-03-14T08:07:14;0.30;;;0.30;;
19347;SDS011;9810;52.480;9.806;2023-03-14T08:09:41;0.23;;;0.23;;
19347;SDS011;9810;52.480;9.806;2023-03-14T08:12:09;0.20;;;0.20;;
19347;SDS011;9810;52.480;9.806;2023-03-14T08:14:37;1.73;;;0.30;;
19347;SDS011;9810;52.480;9.806;2023-03-14T08:17:04;0.30;;;0.30;;
19347;SDS011;9810;52.480;9.806;2023-03-14T08:19:33;1.00;;;0.20;;
19347;SDS011;9810;52.480;9.806;2023-03-14T08:22:02;0.10;;;0.10;;
19347;SDS011;9810;52.480;9.806;2023-03-14T08:24:30;0.30;;;0.27;;
19347;SDS011;9810;52.480;9.806;2023-03-14T08:26:57;3.37;;;0.43;;
19347;SDS011;9810;52.480;9.806;2023-03-14T08:29:25;1.40;;;0.30;;
19347;SDS011;9810;52.480;9.806;2023-03-14T08:31:52;0.60;;;0.30;;
19347;SDS011;9810;52.480;9.806;2023-03-14T08:34:20;0.20;;;0.20;;
19347;SDS011;9810;52.480;9.806;2023-03-14T08:36:48;3.50;;;0.30;;
19347;SDS011;9810;52.480;9.806;2023-03-14T08:39:19;0.80;;;0.20;;
19347;SDS011;9810;52.480;9.806;2023-03-14T08:41:49;0.20;;;0.20;;
19347;SDS011;9810;52.480;9.806;2023-03-14T08:44:18;0.63;;;0.30;;
19347;SDS011;9810;52.480;9.806;2023-03-14T08:46:51;3.00;;;0.50;;
19347;SDS011;9810;52.480;9.806;2023-03-14T08:49:19;0.40;;;0.23;;
19347;SDS011;9810;52.480;9.806;2023-03-14T08:51:46;2.90;;;0.30;;
19347;SDS011;9810;52.480;9.806;2023-03-14T08:54:14;2.03;;;0.30;;
19347;SDS011;9810;52.480;9.806;2023-03-14T08:56:43;0.30;;;0.27;;
19347;SDS011;9810;52.480;9.806;2023-03-14T08:59:11;2.43;;;0.20;;
19347;SDS011;9810;52.480;9.806;2023-03-14T09:01:38;0.30;;;0.30;;
19347;SDS011;9810;52.480;9.806;2023-03-14T09:04:05;0.83;;;0.13;;
19347;SDS011;9810;52.480;9.806;2023-03-14T09:06:34;0.33;;;0.20;;
19347;SDS011;9810;52.480;9.806;2023-03-14T09:09:02;2.63;;;0.30;;
19347;SDS011;9810;52.480;9.806;2023-03-14T09:11:30;1.60;;;0.30;;
19347;SDS011;9810;52.480;9.806;2023-03-14T09:14:04;0.40;;;0.30;;
19347;SDS011;9810;52.480;9.806;2023-03-14T09:16:32;0.20;;;0.20;;
19347;SDS011;9810;52.480;9.806;2023-03-14T09:19:00;0.30;;;0.30;;
19347;SDS011;9810;52.480;9.806;2023-03-14T09:21:27;0.87;;;0.40;;
19347;SDS011;9810;52.480;9.806;2023-03-14T09:23:55;0.70;;;0.20;;
19347;SDS011;9810;52.480;9.806;2023-03-14T09:26:22;0.23;;;0.23;;
19347;SDS011;9810;52.480;9.806;2023-03-14T09:28:49;0.77;;;0.30;;
19347;SDS011;9810;52.480;9.806;2023-03-14T09:31:18;0.30;;;0.30;;
19347;SDS011;9810;52.480;9.806;2023-03-14T09:33:46;1.90;;;0.37;;
19347;SDS011;9810;52.480;9.806;2023-03-14T09:36:15;4.37;;;0.60;;
19347;SDS011;9810;52.480;9.806;2023-03-14T09:38:43;0.30;;;0.30;;
19347;SDS011;9810;52.480;9.806;2023-03-14T09:41:13;0.20;;;0.20;;
19347;SDS011;9810;52.480;9.806;2023-03-14T09:43:42;0.47;;;0.30;;
19347;SDS011;9810;52.480;9.806;2023-03-14T09:46:12;1.10;;;0.50;;
19347;SDS011;9810;52.480;9.806;2023-03-14T09:48:44;0.50;;;0.30;;
19347;SDS011;9810;52.480;9.806;2023-03-14T09:51:14;0.30;;;0.30;;
19347;SDS011;9810;52.480;9.806;2023-03-14T09:53:52;0.30;;;0.13;;
19347;SDS011;9810;52.480;9.806;2023-03-14T09:56:19;3.70;;;0.50;;
19347;SDS011;9810;52.480;9.806;2023-03-14T09:58:50;0.53;;;0.30;;
19347;SDS011;9810;52.480;9.806;2023-03-14T10:01:21;0.70;;;0.50;;
19347;SDS011;9810;52.480;9.806;2023-03-14T10:03:54;0.50;;;0.50;;
19347;SDS011;9810;52.480;9.806;2023-03-14T10:06:23;0.80;;;0.40;;
19347;SDS011;9810;52.480;9.806;2023-03-14T10:08:56;0.70;;;0.70;;
19347;SDS011;9810;52.480;9.806;2023-03-14T10:11:24;0.60;;;0.60;;
19347;SDS011;9810;52.480;9.806;2023-03-14T10:14:02;0.60;;;0.60;;
19347;SDS011;9810;52.480;9.806;2023-03-14T10:16:32;2.00;;;0.57;;
19347;SDS011;9810;52.480;9.806;2023-03-14T10:19:03;0.53;;;0.53;;
19347;SDS011;9810;52.480;9.806;2023-03-14T10:21:35;0.50;;;0.50;;
19347;SDS011;9810;52.480;9.806;2023-03-14T10:24:09;0.50;;;0.43;;
19347;SDS011;9810;52.480;9.806;2023-03-14T10:26:44;0.60;;;0.60;;
19347;SDS011;9810;52.480;9.806;2023-03-14T10:29:15;1.60;;;1.07;;
19347;SDS011;9810;52.480;9.806;2023-03-14T10:31:47;1.17;;;0.57;;
19347;SDS011;9810;52.480;9.806;2023-03-14T10:34:22;0.57;;;0.57;;
19347;SDS011;9810;52.480;9.806;2023-03-14T10:36:55;1.37;;;0.40;;
19347;SDS011;9810;52.480;9.806;2023-03-14T10:42:12;1.03;;;0.90;;
19347;SDS011;9810;52.480;9.806;2023-03-14T10:44:45;1.43;;;1.03;;
19347;SDS011;9810;52.480;9.806;2023-03-14T10:47:16;1.23;;;1.00;;
19347;SDS011;9810;52.480;9.806;2023-03-14T10:49:46;2.67;;;1.00;;
19347;SDS011;9810;52.480;9.806;2023-03-14T10:52:15;0.80;;;0.80;;
19347;SDS011;9810;52.480;9.806;2023-03-14T10:54:48;2.00;;;0.93;;
19347;SDS011;9810;52.480;9.806;2023-03-14T10:57:20;1.63;;;1.00;;
19347;SDS011;9810;52.480;9.806;2023-03-14T10:59:47;2.23;;;1.20;;
19347;SDS011;9810;52.480;9.806;2023-03-14T11:02:21;2.00;;;0.90;;
19347;SDS011;9810;52.480;9.806;2023-03-14T11:05:07;1.47;;;1.20;;
19347;SDS011;9810;52.480;9.806;2023-03-14T11:07:45;2.17;;;1.40;;
19347;SDS011;9810;52.480;9.806;2023-03-14T11:10:14;2.40;;;1.27;;
19347;SDS011;9810;52.480;9.806;2023-03-14T11:12:53;1.37;;;1.20;;
19347;SDS011;9810;52.480;9.806;2023-03-14T11:15:36;2.20;;;1.50;;
19347;SDS011;9810;52.480;9.806;2023-03-14T11:18:16;1.50;;;0.50;;
19347;SDS011;9810;52.480;9.806;2023-03-14T11:21:07;1.90;;;0.50;;
19347;SDS011;9810;52.480;9.806;2023-03-14T11:23:46;2.50;;;0.63;;
19347;SDS011;9810;52.480;9.806;2023-03-14T11:26:32;0.50;;;0.50;;
19347;SDS011;9810;52.480;9.806;2023-03-14T11:29:10;1.57;;;0.70;;
19347;SDS011;9810;52.480;9.806;2023-03-14T11:32:10;2.93;;;0.40;;
19347;SDS011;9810;52.480;9.806;2023-03-14T11:34:44;1.90;;;0.50;;
19347;SDS011;9810;52.480;9.806;2023-03-14T11:37:23;3.03;;;1.90;;
19347;SDS011;9810;52.480;9.806;2023-03-14T11:39:55;2.50;;;0.60;;
19347;SDS011;9810;52.480;9.806;2023-03-14T11:42:27;0.50;;;0.50;;
19347;SDS011;9810;52.480;9.806;2023-03-14T11:45:00;1.47;;;0.50;;
19347;SDS011;9810;52.480;9.806;2023-03-14T11:47:30;0.30;;;0.30;;
19347;SDS011;9810;52.480;9.806;2023-03-14T11:50:15;3.60;;;0.23;;
19347;SDS011;9810;52.480;9.806;2023-03-14T11:52:51;3.10;;;0.40;;
19347;SDS011;9810;52.480;9.806;2023-03-14T11:55:24;0.20;;;0.20;;
19347;SDS011;9810;52.480;9.806;2023-03-14T11:57:58;0.30;;;0.30;;
19347;SDS011;9810;52.480;9.806;2023-03-14T12:00:30;0.27;;;0.27;;
19347;SDS011;9810;52.480;9.806;2023-03-14T12:02:58;0.17;;;0.17;;
19347;SDS011;9810;52.480;9.806;2023-03-14T12:11:05;0.20;;;0.20;;
19347;SDS011;9810;52.480;9.806;2023-03-14T12:13:39;0.30;;;0.30;;
19347;SDS011;9810;52.480;9.806;2023-03-14T12:16:09;1.80;;;0.30;;
19347;SDS011;9810;52.480;9.806;2023-03-14T12:18:53;1.40;;;0.30;;
19347;SDS011;9810;52.480;9.806;2023-03-14T12:21:43;0.73;;;0.40;;
19347;SDS011;9810;52.480;9.806;2023-03-14T12:24:30;0.50;;;0.30;;
19347;SDS011;9810;52.480;9.806;2023-03-14T12:27:00;1.90;;;0.30;;
19347;SDS011;9810;52.480;9.806;2023-03-14T12:29:28;0.30;;;0.30;;
19347;SDS011;9810;52.480;9.806;2023-03-14T12:32:22;1.07;;;0.30;;
19347;SDS011;9810;52.480;9.806;2023-03-14T12:34:49;0.30;;;0.30;;
19347;SDS011;9810;52.480;9.806;2023-03-14T12:37:19;0.40;;;0.30;;
19347;SDS011;9810;52.480;9.806;2023-03-14T12:40:00;0.30;;;0.20;;
19347;SDS011;9810;52.480;9.806;2023-03-14T12:42:43;1.63;;;0.50;;
19347;SDS011;9810;52.480;9.806;2023-03-14T12:45:22;1.07;;;0.30;;
19347;SDS011;9810;52.480;9.806;2023-03-14T12:48:00;2.00;;;0.40;;
19347;SDS011;9810;52.480;9.806;2023-03-14T12:50:39;0.67;;;0.50;;
19347;SDS011;9810;52.480;9.806;2023-03-14T12:56:34;2.83;;;0.67;;
19347;SDS011;9810;52.480;9.806;2023-03-14T12:59:19;2.90;;;0.70;;
19347;SDS011;9810;52.480;9.806;2023-03-14T13:02:20;4.83;;;1.10;;
19347;SDS011;9810;52.480;9.806;2023-03-14T13:04:51;8.27;;;1.20;;
19347;SDS011;9810;52.480;9.806;2023-03-14T13:07:30;4.53;;;0.70;;
19347;SDS011;9810;52.480;9.806;2023-03-14T13:10:00;3.27;;;0.70;;
19347;SDS011;9810;52.480;9.806;2023-03-14T13:15:38;4.03;;;1.00;;
19347;SDS011;9810;52.480;9.806;2023-03-14T13:18:12;7.83;;;1.10;;
19347;SDS011;9810;52.480;9.806;2023-03-14T13:20:41;4.37;;;1.10;;
19347;SDS011;9810;52.480;9.806;2023-03-14T13:23:26;8.97;;;1.97;;
19347;SDS011;9810;52.480;9.806;2023-03-14T13:25:57;10.20;;;0.77;;
19347;SDS011;9810;52.480;9.806;2023-03-14T13:28:27;3.23;;;0.63;;
19347;SDS011;9810;52.480;9.806;2023-03-14T13:31:00;7.07;;;1.37;;
19347;SDS011;9810;52.480;9.806;2023-03-14T13:33:30;8.00;;;2.03;;
19347;SDS011;9810;52.480;9.806;2023-03-14T13:35:58;6.30;;;1.37;;
19347;SDS011;9810;52.480;9.806;2023-03-14T13:38:28;5.03;;;1.00;;
19347;SDS011;9810;52.480;9.806;2023-03-14T13:41:03;2.23;;;0.83;;
19347;SDS011;9810;52.480;9.806;2023-03-14T13:43:35;10.50;;;1.50;;
19347;SDS011;9810;52.480;9.806;2023-03-14T13:46:07;9.43;;;1.13;;
19347;SDS011;9810;52.480;9.806;2023-03-14T13:48:41;7.73;;;1.40;;
19347;SDS011;9810;52.480;9.806;2023-03-14T13:51:20;4.53;;;0.97;;
19347;SDS011;9810;52.480;9.806;2023-03-14T13:53:50;7.70;;;1.40;;
19347;SDS011;9810;52.480;9.806;2023-03-14T13:56:19;3.43;;;1.10;;
19347;SDS011;9810;52.480;9.806;2023-03-14T13:58:51;5.50;;;1.07;;
19347;SDS011;9810;52.480;9.806;2023-03-14T14:01:19;8.80;;;1.37;;
19347;SDS011;9810;52.480;9.806;2023-03-14T14:03:49;6.17;;;1.50;;
19347;SDS011;9810;52.480;9.806;2023-03-14T14:06:30;7.07;;;0.80;;
19347;SDS011;9810;52.480;9.806;2023-03-14T14:08:59;11.80;;;1.73;;
19347;SDS011;9810;52.480;9.806;2023-03-14T14:11:33;12.63;;;1.97;;
19347;SDS011;9810;52.480;9.806;2023-03-14T14:14:08;12.90;;;1.80;;
19347;SDS011;9810;52.480;9.806;2023-03-14T14:16:41;6.47;;;1.47;;
19347;SDS011;9810;52.480;9.806;2023-03-14T14:19:11;8.23;;;1.50;;
19347;SDS011;9810;52.480;9.806;2023-03-14T14:21:39;11.93;;;2.57;;
19347;SDS011;9810;52.480;9.806;2023-03-14T14:24:07;12.10;;;2.13;;
19347;SDS011;9810;52.480;9.806;2023-03-14T14:26:41;15.53;;;3.17;;
19347;SDS011;9810;52.480;9.806;2023-03-14T14:29:21;14.87;;;3.43;;
19347;SDS011;9810;52.480;9.806;2023-03-14T14:32:02;12.47;;;2.10;;
19347;SDS011;9810;52.480;9.806;2023-03-14T14:34:56;17.43;;;4.27;;
19347;SDS011;9810;52.480;9.806;2023-03-14T14:37:29;11.47;;;2.07;;
19347;SDS011;9810;52.480;9.806;2023-03-14T14:40:00;18.87;;;2.40;;
19347;SDS011;9810;52.480;9.806;2023-03-14T14:42:34;12.17;;;1.60;;
19347;SDS011;9810;52.480;9.806;2023-03-14T14:45:17;9.37;;;2.03;;
19347;SDS011;9810;52.480;9.806;2023-03-14T14:47:49;15.47;;;2.83;;
19347;SDS011;9810;52.480;9.806;2023-03-14T14:50:21;10.40;;;2.23;;
19347;SDS011;9810;52.480;9.806;2023-03-14T14:52:56;5.53;;;1.13;;
19347;SDS011;9810;52.480;9.806;2023-03-14T14:55:28;13.77;;;3.07;;
19347;SDS011;9810;52.480;9.806;2023-03-14T14:58:10;11.57;;;1.30;;
19347;SDS011;9810;52.480;9.806;2023-03-14T15:00:49;8.67;;;1.50;;
19347;SDS011;9810;52.480;9.806;2023-03-14T15:03:21;9.83;;;1.97;;
19347;SDS011;9810;52.480;9.806;2023-03-14T15:05:48;9.80;;;1.47;;
19347;SDS011;9810;52.480;9.806;2023-03-14T15:08:22;6.07;;;1.30;;
19347;SDS011;9810;52.480;9.806;2023-03-14T15:10:51;9.83;;;2.30;;
19347;SDS011;9810;52.480;9.806;2023-03-14T15:13:23;10.67;;;2.77;;
19347;SDS011;9810;52.480;9.806;2023-03-14T15:15:52;5.97;;;1.20;;
19347;SDS011;9810;52.480;9.806;2023-03-14T15:18:24;5.37;;;1.03;;
19347;SDS011;9810;52.480;9.806;2023-03-14T15:20:56;8.53;;;1.70;;
19347;SDS011;9810;52.480;9.806;2023-03-14T15:23:23;12.00;;;1.60;;
19347;SDS011;9810;52.480;9.806;2023-03-14T15:25:54;9.80;;;1.60;;
19347;SDS011;9810;52.480;9.806;2023-03-14T15:28:21;4.87;;;1.20;;
19347;SDS011;9810;52.480;9.806;2023-03-14T15:30:55;9.00;;;1.40;;
19347;SDS011;9810;52.480;9.806;2023-03-14T15:33:26;6.60;;;1.63;;
19347;SDS011;9810;52.480;9.806;2023-03-14T15:35:55;9.20;;;1.73;;